• Join FlightAware (Why Join?)
  • Login
  • US Flag 
03:35AM EDT


 

Airport Tracker/Info


-or-


 

Live Flight TrackerFlight Track Log ✈ SWA2009 ✈ 13-Apr-2013 ✈ KBWI - KMKE

Flight Track Log - Related Links

Times and Time Zones

All times are in EDT time to prevent confusion due to time zone crossing. See the SWA2009 flight status page for this flight to view local times or setup timezone preferences in your user account.

Time Position Orientation Groundspeed Altitude Reporting Facility
EDT Latitude Longitude Course Direction KTS MPH feet Rate Location/Type
11:50AM 39.1833 -76.7500 288° West 187 215 2,700  Level Potomac TRACON
11:51AM 39.2000 -76.8167 288° West 214 246 5,400 2,760 Climbing Potomac TRACON
11:52AM 39.2000 -76.8833 270° West 220 253 8,000 2,280 Climbing Potomac TRACON
11:54AM 39.2608 -77.0606 294° West 265 305 12,200 2,520 Climbing Washington Center
11:55AM 39.2992 -77.1686 295° West 304 350 15,500 2,400 Climbing Washington Center
11:56AM 39.3372 -77.2794 294° West 329 379 17,000 1,200 Climbing Washington Center
11:57AM 39.3753 -77.3931 293° West 342 394 18,000 1,980 Climbing Washington Center
11:58AM 39.4150 -77.5097 294° West 342 394 21,000 1,980 Climbing Washington Center
11:59AM 39.4569 -77.6261 295° West 347 399 22,000 1,380 Climbing Washington Center
12:00PM 39.5025 -77.7594 294° West 352 405 23,800 2,040 Climbing Washington Center
12:01PM 39.5400 -77.8789 292° West 359 413 26,100 1,800 Climbing Washington Center
12:03PM 39.6242 -78.1439 292° West 373 429 29,700 1,920 Climbing Cleveland Center
12:04PM 39.6875 -78.2792 301° West 395 455 32,400 2,220 Climbing Cleveland Center
12:05PM 39.7397 -78.3989 300° West 395 455 34,200 1,680 Climbing Cleveland Center
12:06PM 39.7875 -78.5028 301° West 390 449 35,800 900 Climbing Cleveland Center
12:07PM 39.8397 -78.6175 301° West 373 429 36,000 2,100 Climbing Cleveland Center
12:08PM 39.8936 -78.7350 301° West 368 423 40,000  Climbing Cleveland Center
12:09PM 39.9433 -78.8472 300° West 368 423 36,000 -1,620 Descending Cleveland Center
12:10PM 39.9953 -78.9625 300° West 368 423 36,800 780 Climbing Cleveland Center
12:11PM 40.0531 -79.0833 302° West 379 436 37,600 960 Climbing Cleveland Center
12:12PM 40.1025 -79.2069 298° West 379 436 38,800 900 Climbing Cleveland Center
12:13PM 40.1603 -79.3253 303° West 384 442 39,400 600 Climbing Cleveland Center
12:14PM 40.2158 -79.4519 300° West 394 453 40,000 300 Climbing Cleveland Center
12:15PM 40.2711 -79.5764 300° West 402 463 40,000  Level Cleveland Center
12:16PM 40.3244 -79.6981 300° West 397 457 40,000  Level Cleveland Center
12:17PM 40.3772 -79.8200 300° West 397 457 40,000  Level Cleveland Center
12:18PM 40.4303 -79.9422 300° West 397 457 40,000  Level Cleveland Center
12:19PM 40.4831 -80.0728 298° West 397 457 40,000  Level Cleveland Center
12:20PM 40.5375 -80.1953 300° West 397 457 40,000  Level Cleveland Center
12:21PM 40.5900 -80.3206 299° West 391 450 40,000  Level Cleveland Center
12:22PM 40.6444 -80.4436 300° West 396 456 40,000  Level Cleveland Center
12:23PM 40.6967 -80.5694 299° West 396 456 40,000  Level Cleveland Center
12:24PM 40.7572 -80.7011 301° West 391 450 40,000  Level Cleveland Center
12:25PM 40.8092 -80.8244 299° West 391 450 40,000  Level Cleveland Center
12:26PM 40.8756 -80.9400 307° West 391 450 40,000  Level Cleveland Center
12:27PM 40.9439 -81.0503 309° West 396 456 40,000  Level Cleveland Center
12:28PM 41.0081 -81.1636 307° West 391 450 40,000  Level Cleveland Center
12:29PM 41.0761 -81.2772 308° West 391 450 40,000  Level Cleveland Center
12:30PM 41.1461 -81.3939 309° West 391 450 40,000  Level Cleveland Center
12:31PM 41.2183 -81.5022 312° West 397 457 40,000  Level Cleveland Center
12:32PM 41.2861 -81.6194 308° West 397 457 40,000  Level Cleveland Center
12:33PM 41.3539 -81.7339 308° West 397 457 40,000  Level Cleveland Center
12:34PM 41.4131 -81.8428 306° West 408 470 40,000  Level Cleveland Center
12:35PM 41.4889 -81.9719 308° West 413 475 40,000  Level Cleveland Center
12:36PM 41.5581 -82.0900 308° West 413 475 40,000  Level Cleveland Center
12:37PM 41.6275 -82.2056 309° West 408 470 40,000  Level Cleveland Center
12:38PM 41.6864 -82.3097 307° West 402 463 40,000  Level Cleveland Center
12:39PM 41.7575 -82.4286 309° West 402 463 40,000  Level Cleveland Center
12:40PM 41.8264 -82.5478 308° West 402 463 40,000  Level Cleveland Center
12:41PM 41.8953 -82.6642 309° West 402 463 40,000  Level Cleveland Center
12:42PM 41.9619 -82.7808 308° West 402 463 40,000  Level Cleveland Center
12:43PM 42.0283 -82.9006 307° West 402 463 40,000  Level Cleveland Center
12:44PM 42.0967 -83.0206 308° West 402 463 40,000  Level Cleveland Center
12:45PM 42.1650 -83.1408 307° West 402 463 40,000  Level Cleveland Center
12:46PM 42.2350 -83.2669 307° West 414 476 40,000  Level Cleveland Center
12:47PM 42.3050 -83.3908 307° West 414 476 40,000  Level Cleveland Center
12:48PM 42.3769 -83.5147 308° West 419 482 40,000  Level Cleveland Center
12:49PM 42.4544 -83.6564 307° West 419 482 40,000  Level Cleveland Center
12:50PM 42.5222 -83.7781 307° West 419 482 40,000  Level Cleveland Center
12:51PM 42.5914 -83.9086 306° West 419 482 40,000  Level Cleveland Center
12:52PM 42.6647 -84.0367 308° West 419 482 40,000  Level Cleveland Center
12:53PM 42.7358 -84.1650 307° West 419 482 40,000  Level Cleveland Center
12:55PM 42.8697 -84.4078 307° West 432 497 40,000  Level Chicago Center
12:56PM 42.9344 -84.5431 303° West 435 501 40,000  Level Chicago Center
12:57PM 42.9631 -84.6967 284° West 422 486 40,000  Level Chicago Center
12:58PM 42.9881 -84.8514 283° West 419 482 40,000  Level Chicago Center
12:59PM 43.0128 -85.0067 282° West 420 483 40,000 -120 Level Chicago Center
01:00PM 43.0414 -85.1897 282° West 415 478 39,800 -780 Descending Chicago Center
01:01PM 43.0642 -85.3378 282° West 406 467 38,400 -1,920 Descending Chicago Center
01:02PM 43.0856 -85.4789 282° West 387 445 35,900 -2,640 Descending Chicago Center
01:03PM 43.1072 -85.6242 282° West 390 449 33,000 -2,040 Descending Chicago Center
01:04PM 43.1286 -85.7717 281° West 397 457 31,800 -1,020 Descending Chicago Center
01:05PM 43.1500 -85.9086 282° West 381 438 31,000 -2,040 Descending Chicago Center
01:06PM 43.1689 -86.0647 279° West 358 412 27,700 -2,760 Descending Chicago Center
01:07PM 43.1672 -86.1975 269° West 355 409 25,400 -1,740 Descending Chicago Center
01:08PM 43.1658 -86.3228 269° West 333 383 24,200 -1,260 Descending Chicago Center
01:09PM 43.1636 -86.4447 269° West 324 373 22,800 -1,620 Descending Chicago Center
01:10PM 43.1614 -86.5622 269° West 314 361 21,000 -1,800 Descending Chicago Center
01:11PM 43.1594 -86.6753 269° West 301 346 19,200 -2,040 Descending Chicago Center
01:12PM 43.1569 -86.8072 269° West 292 336 16,800 -2,100 Descending Chicago Center
01:14PM 43.1544 -86.9183 268° West 292 336 14,900 -1,740 Descending Chicago Center
01:15PM 43.1506 -87.0258 267° West 285 328 13,300 -2,040 Descending Chicago Center
01:16PM 43.1272 -87.1244 252° West 276 318 10,700 -2,040 Descending Chicago Center
01:17PM 43.1056 -87.2228 253° West 270 311 9,200 -1,200 Descending Chicago Center
01:18PM 43.0831 -87.3106 251° West 251 289 8,300 -1,080 Descending Chicago Center
01:19PM 43.0625 -87.3983 252° West 235 270 7,000 -1,320 Descending Chicago Center
01:20PM 43.0397 -87.4942 252° West 228 262 5,600 -1,020 Descending Chicago Center
01:21PM 43.0214 -87.5694 252° West 214 246 5,000 -540 Descending Chicago Center
01:22PM 43.0064 -87.6347 253° West 188 216 4,500 -660 Descending Chicago Center
01:23PM 42.9914 -87.6919 250° West 165 190 3,700 -780 Descending Chicago Center
01:24PM 42.9814 -87.7400 254° West 143 165 3,000 -720 Descending Chicago Center
01:25PM 42.9714 -87.7844 253° West 132 152 2,300 -720 Descending Chicago Center
01:26PM 42.9597 -87.8286 250° West 126 145 1,600 -540 Descending Chicago Center
01:27PM 42.9483 -87.8744 251° West 126 145 1,300 -300 Descending Chicago Center
01:29PM 42.9333 -87.8833 236° Southwest  Level FlightAware Approximate